createdAt,value
2018-06-02T00:01:18.977Z,7.30
2018-06-02T00:03:46.596Z,8.23
2018-06-02T00:06:14.125Z,10.25
2018-06-02T00:08:41.682Z,10.07
2018-06-02T00:11:09.287Z,11.67
2018-06-02T00:13:36.833Z,9.80
2018-06-02T00:16:04.423Z,11.80
2018-06-02T00:18:32.085Z,12.00
2018-06-02T00:20:59.643Z,12.17
2018-06-02T00:23:27.169Z,10.77
2018-06-02T00:25:54.747Z,9.27
2018-06-02T00:28:22.272Z,10.80
2018-06-02T00:30:49.879Z,8.60
2018-06-02T00:33:17.440Z,10.43
2018-06-02T00:35:45.003Z,9.20
2018-06-02T00:38:12.527Z,11.07
2018-06-02T00:40:40.105Z,10.40
2018-06-02T00:43:07.617Z,7.97
2018-06-02T00:45:35.185Z,11.90
2018-06-02T00:48:02.737Z,10.47
2018-06-02T00:50:30.313Z,9.50
2018-06-02T00:52:57.865Z,10.20
2018-06-02T00:55:25.414Z,11.18
2018-06-02T00:57:52.950Z,10.07
2018-06-02T01:00:20.546Z,10.20
2018-06-02T01:02:48.154Z,11.17
2018-06-02T01:05:15.816Z,10.73
2018-06-02T01:07:43.353Z,15.00
2018-06-02T01:10:10.922Z,11.07
2018-06-02T01:12:38.461Z,12.30
2018-06-02T01:15:06.039Z,11.30
2018-06-02T01:17:33.590Z,10.27
2018-06-02T01:20:01.585Z,12.30
2018-06-02T01:22:29.163Z,13.10
2018-06-02T01:24:56.813Z,16.13
2018-06-02T01:27:24.374Z,11.27
2018-06-02T01:29:51.954Z,14.77
2018-06-02T01:32:19.585Z,14.03
2018-06-02T01:34:47.247Z,13.53
2018-06-02T01:37:14.786Z,12.80
2018-06-02T01:39:42.358Z,11.07
2018-06-02T01:42:09.910Z,10.77
2018-06-02T01:44:37.436Z,12.15
2018-06-02T01:47:05.045Z,11.03
2018-06-02T01:49:32.593Z,14.63
2018-06-02T01:52:00.189Z,9.83
2018-06-02T01:54:27.839Z,11.53
2018-06-02T01:56:55.497Z,10.60
2018-06-02T01:59:23.049Z,10.87
2018-06-02T02:01:50.710Z,14.70
2018-06-02T02:04:18.253Z,15.57
2018-06-02T02:06:45.834Z,15.03
2018-06-02T02:09:13.376Z,13.47
2018-06-02T02:11:40.958Z,23.12
2018-06-02T02:14:08.489Z,19.53
2018-06-02T02:16:36.081Z,17.93
2018-06-02T02:19:03.622Z,11.47
2018-06-02T02:21:32.119Z,13.68
2018-06-02T02:23:59.671Z,17.30
2018-06-02T02:26:27.274Z,21.40
2018-06-02T02:28:54.806Z,23.83
2018-06-02T02:31:22.448Z,40.13
2018-06-02T02:33:49.980Z,22.83
2018-06-02T02:36:17.555Z,25.47
2018-06-02T02:38:45.085Z,21.33
2018-06-02T02:41:12.646Z,25.17
2018-06-02T02:43:40.187Z,29.63
2018-06-02T02:46:07.771Z,26.42
2018-06-02T02:48:35.317Z,27.00
2018-06-02T02:51:02.902Z,24.23
2018-06-02T02:53:30.496Z,25.60
2018-06-02T02:55:58.098Z,28.33
2018-06-02T02:58:25.625Z,26.23
2018-06-02T03:00:53.203Z,25.17
2018-06-02T03:03:20.730Z,27.43
2018-06-02T03:05:48.290Z,28.20
2018-06-02T03:08:15.814Z,29.33
2018-06-02T03:10:43.411Z,28.97
2018-06-02T03:13:11.066Z,29.00
2018-06-02T03:15:38.614Z,35.23
2018-06-02T03:18:06.182Z,26.48
2018-06-02T03:20:33.743Z,35.03
2018-06-02T03:23:02.325Z,30.05
2018-06-02T03:25:29.875Z,29.80
2018-06-02T03:27:57.552Z,28.90
2018-06-02T03:30:25.977Z,28.40
2018-06-02T03:32:53.588Z,29.40
2018-06-02T03:35:21.133Z,25.47
2018-06-02T03:37:48.687Z,25.23
2018-06-02T03:40:16.234Z,22.77
2018-06-02T03:42:43.834Z,23.13
2018-06-02T03:45:11.390Z,29.77
2018-06-02T03:47:39.048Z,23.83
2018-06-02T03:50:06.597Z,23.80
2018-06-02T03:52:34.174Z,25.53
2018-06-02T03:55:02.397Z,23.58
2018-06-02T03:57:30.000Z,22.33
2018-06-02T03:59:57.562Z,21.63
2018-06-02T04:02:25.226Z,19.97
2018-06-02T04:04:52.757Z,23.27
2018-06-02T04:07:20.354Z,21.20
2018-06-02T04:09:47.911Z,20.25
2018-06-02T04:12:15.569Z,19.77
2018-06-02T04:14:43.227Z,22.47
2018-06-02T04:17:10.812Z,20.43
2018-06-02T04:19:38.449Z,20.25
2018-06-02T04:22:06.124Z,20.23
2018-06-02T04:24:33.653Z,18.53
2018-06-02T04:27:01.229Z,20.43
2018-06-02T04:29:28.796Z,18.57
2018-06-02T04:31:56.435Z,22.83
2018-06-02T04:34:23.983Z,17.83
2018-06-02T04:36:51.572Z,17.83
2018-06-02T04:39:19.133Z,16.80
2018-06-02T04:41:46.667Z,17.80
2018-06-02T04:44:14.242Z,16.73
2018-06-02T04:46:41.770Z,20.33
2018-06-02T04:49:09.346Z,20.83
2018-06-02T04:51:37.140Z,19.25
2018-06-02T04:54:04.805Z,18.90
2018-06-02T04:56:32.355Z,18.73
2018-06-02T04:58:59.919Z,19.67
2018-06-02T05:01:27.476Z,19.90
2018-06-02T05:03:55.138Z,19.58
2018-06-02T05:06:22.708Z,19.87
2018-06-02T05:08:50.366Z,18.97
2018-06-02T05:11:17.919Z,19.87
2018-06-02T05:13:45.499Z,19.97
2018-06-02T05:16:13.019Z,19.58
2018-06-02T05:18:40.577Z,18.03
2018-06-02T05:21:08.168Z,20.57
2018-06-02T05:23:35.759Z,20.23
2018-06-02T05:26:03.356Z,21.90
2018-06-02T05:28:30.939Z,22.03
2018-06-02T05:30:58.461Z,24.80
2018-06-02T05:33:26.058Z,26.67
2018-06-02T05:35:53.589Z,22.60
2018-06-02T05:38:21.183Z,23.67
2018-06-02T05:40:48.743Z,20.80
2018-06-02T05:43:16.401Z,22.47
2018-06-02T05:45:43.946Z,22.17
2018-06-02T05:48:11.501Z,21.43
2018-06-02T05:50:39.050Z,23.43
2018-06-02T05:53:06.628Z,20.03
2018-06-02T05:55:34.151Z,21.57
2018-06-02T05:58:01.705Z,18.23
2018-06-02T06:00:29.259Z,19.30
2018-06-02T06:02:56.838Z,19.90
2018-06-02T06:05:25.976Z,17.83
2018-06-02T06:07:53.740Z,18.20
2018-06-02T06:10:21.294Z,17.97
2018-06-02T06:12:48.855Z,18.40
2018-06-02T06:15:16.522Z,18.17
2018-06-02T06:17:44.049Z,16.37
2018-06-02T06:20:11.605Z,18.87
2018-06-02T06:22:39.130Z,17.87
2018-06-02T06:25:06.709Z,16.80
2018-06-02T06:27:34.302Z,14.50
2018-06-02T06:30:01.885Z,15.10
2018-06-02T06:32:29.538Z,14.43
2018-06-02T06:34:57.109Z,16.43
2018-06-02T06:37:24.657Z,15.32
2018-06-02T06:39:52.320Z,14.23
2018-06-02T06:42:19.850Z,13.17
2018-06-02T06:44:47.489Z,16.63
2018-06-02T06:47:15.026Z,13.20
2018-06-02T06:49:42.573Z,15.77
2018-06-02T06:52:10.107Z,14.53
2018-06-02T06:54:38.709Z,15.82
2018-06-02T06:57:06.229Z,13.53
2018-06-02T06:59:33.806Z,14.57
2018-06-02T07:02:01.361Z,15.07
2018-06-02T07:04:33.143Z,14.27
2018-06-02T07:07:00.895Z,14.03
2018-06-02T07:09:29.122Z,12.20
2018-06-02T07:11:56.667Z,12.18
2018-06-02T07:14:25.027Z,12.70
2018-06-02T07:16:52.633Z,12.13
2018-06-02T07:19:25.747Z,13.27
2018-06-02T07:21:53.858Z,12.57
2018-06-02T07:24:22.896Z,13.65
2018-06-02T07:26:51.348Z,13.03
2018-06-02T07:29:19.013Z,12.83
2018-06-02T07:31:49.934Z,12.50
2018-06-02T07:34:17.741Z,12.50
2018-06-02T07:36:45.274Z,13.15
2018-06-02T07:39:13.770Z,13.33
2018-06-02T07:41:41.375Z,13.73
2018-06-02T07:44:09.052Z,12.40
2018-06-02T07:46:36.951Z,10.80
2018-06-02T07:49:04.541Z,13.37
2018-06-02T07:51:32.125Z,12.57
2018-06-02T07:54:01.054Z,13.00
2018-06-02T07:56:30.420Z,12.87
2018-06-02T07:58:58.117Z,12.17
2018-06-02T08:01:26.614Z,12.83
2018-06-02T08:03:54.165Z,11.27
2018-06-02T08:06:21.800Z,11.17
2018-06-02T08:08:49.347Z,10.53
2018-06-02T08:11:18.021Z,10.87
2018-06-02T08:13:47.428Z,11.90
2018-06-02T08:16:15.095Z,10.73
2018-06-02T08:18:42.658Z,9.77
2018-06-02T08:21:10.321Z,11.13
2018-06-02T08:23:39.893Z,11.90
2018-06-02T08:26:08.837Z,11.97
2018-06-02T08:28:36.642Z,11.47
2018-06-02T08:31:04.243Z,11.30
2018-06-02T08:33:31.867Z,11.30
2018-06-02T08:35:59.460Z,10.03
2018-06-02T08:38:27.020Z,9.77
2018-06-02T08:40:54.694Z,10.03
2018-06-02T08:43:22.949Z,10.70
2018-06-02T08:45:50.682Z,10.68
2018-06-02T08:48:18.285Z,13.73
2018-06-02T08:50:45.858Z,16.53
2018-06-02T08:53:13.480Z,17.30
2018-06-02T08:55:41.070Z,18.63
2018-06-02T08:58:09.214Z,15.95
2018-06-02T09:00:36.787Z,15.60
2018-06-02T09:03:05.382Z,15.63
2018-06-02T09:05:33.095Z,15.87
2018-06-02T09:08:00.810Z,15.10
2018-06-02T09:10:29.145Z,15.83
2018-06-02T09:12:56.729Z,15.63
2018-06-02T09:15:24.281Z,13.83
2018-06-02T09:17:51.876Z,14.30
2018-06-02T09:20:20.210Z,14.10
2018-06-02T09:22:48.533Z,14.40
2018-06-02T09:25:16.837Z,14.10
2018-06-02T09:27:44.496Z,14.87
2018-06-02T09:30:12.740Z,14.47
2018-06-02T09:32:40.395Z,12.50
2018-06-02T09:35:07.974Z,12.60
2018-06-02T09:37:35.521Z,13.50
2018-06-02T09:40:03.077Z,12.23
2018-06-02T09:42:30.720Z,13.93
2018-06-02T09:44:58.260Z,12.10
2018-06-02T09:47:25.857Z,13.23
2018-06-02T09:49:53.413Z,10.75
2018-06-02T09:52:20.977Z,11.57
2018-06-02T09:54:48.512Z,11.50
2018-06-02T09:57:16.087Z,10.33
2018-06-02T09:59:43.647Z,9.50
2018-06-02T10:02:11.222Z,9.43
2018-06-02T10:04:39.428Z,9.18
2018-06-02T10:07:07.047Z,9.13
2018-06-02T10:09:34.595Z,8.03
2018-06-02T10:12:02.179Z,7.43
2018-06-02T10:14:29.727Z,7.13
2018-06-02T10:16:57.592Z,6.33
2018-06-02T10:19:25.150Z,6.50
2018-06-02T10:21:53.132Z,7.57
2018-06-02T10:24:21.499Z,6.07
2018-06-02T10:26:49.065Z,5.43
2018-06-02T10:29:16.618Z,6.50
2018-06-02T10:31:44.170Z,4.97
2018-06-02T10:34:11.707Z,6.03
2018-06-02T10:36:39.796Z,6.00
2018-06-02T10:39:07.832Z,5.23
2018-06-02T10:41:35.458Z,4.90
2018-06-02T10:44:03.009Z,4.33
2018-06-02T10:46:30.660Z,4.20
2018-06-02T10:48:58.180Z,4.67
2018-06-02T10:51:25.738Z,4.23
2018-06-02T10:53:57.261Z,4.65
2018-06-02T10:56:25.446Z,4.47
2018-06-02T10:58:53.497Z,5.30
2018-06-02T11:01:21.035Z,5.37
2018-06-02T11:03:48.698Z,4.73
2018-06-02T11:06:16.263Z,4.43
2018-06-02T11:08:43.929Z,5.13
2018-06-02T11:11:11.441Z,3.90
2018-06-02T11:13:39.733Z,4.45
2018-06-02T11:16:07.287Z,4.63
2018-06-02T11:18:34.883Z,4.70
2018-06-02T11:21:03.149Z,4.27
2018-06-02T11:23:30.994Z,4.13
2018-06-02T11:25:58.789Z,3.60
2018-06-02T11:28:26.344Z,4.00
2018-06-02T11:30:54.275Z,3.87
2018-06-02T11:33:23.110Z,4.53
2018-06-02T11:35:51.300Z,4.13
2018-06-02T11:38:18.932Z,4.27
2018-06-02T11:40:46.458Z,3.50
2018-06-02T11:43:14.207Z,4.03
2018-06-02T11:45:41.760Z,3.33
2018-06-02T11:48:09.865Z,3.47
2018-06-02T11:50:37.453Z,3.20
2018-06-02T11:53:05.066Z,3.60
2018-06-02T11:55:32.949Z,3.47
2018-06-02T11:58:00.497Z,3.80
2018-06-02T12:00:30.044Z,3.50
2018-06-02T12:02:57.804Z,3.67
2018-06-02T12:05:25.680Z,3.80
2018-06-02T12:07:53.332Z,4.13
2018-06-02T12:10:20.862Z,3.93
2018-06-02T12:12:48.409Z,3.77
2018-06-02T12:15:15.966Z,4.53
2018-06-02T12:17:44.639Z,3.67
2018-06-02T12:20:12.414Z,4.43
2018-06-02T12:22:40.021Z,3.70
2018-06-02T12:25:07.591Z,3.03
2018-06-02T12:27:36.405Z,3.87
2018-06-02T12:30:04.145Z,3.70
2018-06-02T12:32:31.678Z,4.10
2018-06-02T12:34:59.232Z,3.70
2018-06-02T12:37:35.630Z,4.60
2018-06-02T12:40:07.189Z,3.57
2018-06-02T12:42:35.838Z,3.70
2018-06-02T12:45:03.429Z,3.47
2018-06-02T12:47:32.867Z,4.20
2018-06-02T12:50:00.688Z,3.73
2018-06-02T12:52:28.247Z,3.40
2018-06-02T12:54:55.807Z,3.70
2018-06-02T12:57:23.376Z,3.87
2018-06-02T12:59:51.028Z,3.95
2018-06-02T13:02:18.554Z,4.03
2018-06-02T13:04:47.183Z,4.00
2018-06-02T13:07:15.035Z,3.90
2018-06-02T13:09:42.697Z,3.40
2018-06-02T13:12:10.360Z,3.20
2018-06-02T13:14:38.001Z,3.73
2018-06-02T13:17:07.687Z,3.10
2018-06-02T13:19:35.310Z,3.23
2018-06-02T13:22:02.956Z,3.20
2018-06-02T13:24:35.992Z,3.17
2018-06-02T13:27:11.315Z,3.27
2018-06-02T13:29:45.457Z,3.05
2018-06-02T13:32:19.077Z,2.73
2018-06-02T13:34:56.211Z,3.25
2018-06-02T13:37:29.818Z,3.37
2018-06-02T13:40:01.375Z,3.00
2018-06-02T13:42:29.110Z,3.23
2018-06-02T13:44:56.765Z,3.47
2018-06-02T13:47:24.833Z,2.85
2018-06-02T13:49:52.494Z,3.67
2018-06-02T13:52:20.172Z,3.90
2018-06-02T13:54:48.329Z,3.35
2018-06-02T13:57:15.924Z,3.40
2018-06-02T13:59:43.706Z,3.30
2018-06-02T14:02:11.229Z,3.23
2018-06-02T14:04:38.810Z,3.00
2018-06-02T14:07:06.335Z,3.30
2018-06-02T14:09:35.953Z,2.80
2018-06-02T14:12:03.601Z,2.60
2018-06-02T14:14:31.244Z,2.90
2018-06-02T14:16:59.845Z,2.80
2018-06-02T14:19:27.422Z,3.00
2018-06-02T14:21:55.023Z,3.30
2018-06-02T14:24:22.599Z,3.20
2018-06-02T14:26:54.123Z,3.43
2018-06-02T14:29:26.314Z,3.17
2018-06-02T14:31:57.154Z,3.30
2018-06-02T14:34:26.233Z,3.27
2018-06-02T14:36:53.838Z,2.97
2018-06-02T14:39:21.407Z,3.00
2018-06-02T14:41:48.989Z,3.10
2018-06-02T14:44:20.386Z,2.40
2018-06-02T14:46:48.990Z,2.57
2018-06-02T14:49:16.625Z,3.53
2018-06-02T14:51:44.190Z,3.67
2018-06-02T14:54:11.728Z,3.45
2018-06-02T14:56:40.028Z,2.60
2018-06-02T14:59:07.598Z,3.30
2018-06-02T15:01:36.289Z,3.90
2018-06-02T15:04:03.937Z,3.70
2018-06-02T15:06:31.621Z,2.90
2018-06-02T15:08:59.390Z,3.27
2018-06-02T15:11:27.043Z,3.10
2018-06-02T15:13:54.593Z,2.90
2018-06-02T15:16:22.264Z,2.97
2018-06-02T15:18:49.773Z,3.22
2018-06-02T15:21:17.576Z,2.60
2018-06-02T15:23:45.153Z,2.70
2018-06-02T15:26:12.806Z,3.27
2018-06-02T15:28:41.527Z,3.27
2018-06-02T15:31:09.082Z,2.93
2018-06-02T15:33:36.613Z,3.23
2018-06-02T15:39:09.264Z,3.00
2018-06-02T15:41:39.330Z,2.87
2018-06-02T15:44:08.122Z,3.00
2018-06-02T15:46:36.916Z,2.30
2018-06-02T15:49:06.470Z,2.53
2018-06-02T15:51:36.397Z,2.77
2018-06-02T15:54:05.154Z,2.67
2018-06-02T15:56:34.110Z,2.57
2018-06-02T15:59:02.758Z,2.60
2018-06-02T16:01:31.436Z,2.60
2018-06-02T16:04:01.385Z,3.10
2018-06-02T16:06:30.887Z,2.50
2018-06-02T16:08:59.584Z,2.47
2018-06-02T16:11:28.293Z,3.10
2018-06-02T16:13:56.956Z,2.60
2018-06-02T16:16:25.673Z,2.90
2018-06-02T16:18:54.352Z,2.60
2018-06-02T16:21:22.986Z,2.30
2018-06-02T16:23:51.873Z,2.80
2018-06-02T16:26:20.602Z,3.80
2018-06-02T16:28:49.381Z,2.83
2018-06-02T16:31:18.169Z,2.50
2018-06-02T16:33:46.800Z,2.57
2018-06-02T16:36:15.539Z,2.73
2018-06-02T16:38:44.193Z,2.70
2018-06-02T16:41:13.269Z,2.37
2018-06-02T16:43:41.950Z,2.27
2018-06-02T16:46:10.626Z,2.30
2018-06-02T16:48:39.391Z,2.40
2018-06-02T16:51:08.082Z,2.33
2018-06-02T16:53:36.797Z,2.17
2018-06-02T16:56:08.533Z,2.50
2018-06-02T16:58:37.258Z,2.17
2018-06-02T17:01:05.990Z,2.47
2018-06-02T17:03:34.692Z,2.30
2018-06-02T17:06:03.468Z,2.67
2018-06-02T17:08:32.145Z,2.47
2018-06-02T17:11:00.943Z,3.63
2018-06-02T17:13:29.614Z,26.33
2018-06-02T17:15:58.401Z,3.43
2018-06-02T17:18:27.102Z,3.60
2018-06-02T17:20:55.858Z,2.43
2018-06-02T17:23:24.584Z,2.50
2018-06-02T17:25:53.178Z,2.40
2018-06-02T17:28:21.937Z,2.10
2018-06-02T17:30:50.824Z,2.37
2018-06-02T17:33:19.516Z,2.22
2018-06-02T17:35:48.168Z,2.40
2018-06-02T17:38:16.786Z,2.20
2018-06-02T17:40:45.473Z,2.57
2018-06-02T17:43:14.253Z,2.00
2018-06-02T17:45:43.554Z,2.37
2018-06-02T17:48:12.227Z,2.00
2018-06-02T17:50:40.925Z,2.60
2018-06-02T17:53:09.713Z,1.70
2018-06-02T17:55:38.354Z,2.00
2018-06-02T17:58:07.061Z,2.20
2018-06-02T18:00:35.771Z,2.20
2018-06-02T18:03:04.661Z,2.30
2018-06-02T18:05:33.323Z,6.50
2018-06-02T18:08:01.997Z,38.70
2018-06-02T18:10:30.822Z,37.63
2018-06-02T18:12:59.526Z,23.18
2018-06-02T18:15:28.203Z,18.83
2018-06-02T18:17:56.930Z,16.33
2018-06-02T18:20:25.668Z,16.27
2018-06-02T18:22:54.363Z,12.90
2018-06-02T18:25:23.141Z,8.50
2018-06-02T18:27:51.808Z,5.72
2018-06-02T18:30:20.434Z,3.67
2018-06-02T18:32:49.197Z,3.47
2018-06-02T18:35:17.846Z,3.20
2018-06-02T18:37:46.876Z,2.83
2018-06-02T18:40:15.549Z,3.33
2018-06-02T18:42:44.260Z,3.63
2018-06-02T18:45:13.775Z,2.62
2018-06-02T18:47:42.481Z,2.70
2018-06-02T18:50:11.236Z,2.33
2018-06-02T18:52:39.986Z,3.10
2018-06-02T18:55:08.609Z,2.60
2018-06-02T18:57:37.287Z,2.40
2018-06-02T19:00:06.076Z,2.83
2018-06-02T19:02:34.862Z,2.00
2018-06-02T19:05:03.547Z,2.73
2018-06-02T19:07:32.181Z,2.73
2018-06-02T19:10:00.845Z,2.73
2018-06-02T19:12:29.529Z,2.40
2018-06-02T19:15:00.255Z,2.62
2018-06-02T19:17:29.981Z,2.70
2018-06-02T19:19:58.662Z,2.60
2018-06-02T19:22:27.332Z,2.77
2018-06-02T19:24:56.019Z,2.47
2018-06-02T19:27:24.670Z,2.93
2018-06-02T19:29:53.367Z,2.50
2018-06-02T19:32:22.045Z,2.50
2018-06-02T19:34:50.722Z,2.90
2018-06-02T19:37:19.431Z,2.60
2018-06-02T19:39:48.129Z,2.50
2018-06-02T19:42:17.152Z,2.63
2018-06-02T19:44:45.899Z,2.60
2018-06-02T19:47:14.790Z,2.60
2018-06-02T19:49:44.088Z,2.55
2018-06-02T19:52:13.059Z,3.13
2018-06-02T19:54:41.984Z,2.87
2018-06-02T19:57:10.669Z,2.83
2018-06-02T19:59:39.346Z,3.23
2018-06-02T20:02:08.022Z,3.00
2018-06-02T20:04:36.717Z,2.90
2018-06-02T20:07:05.507Z,2.70
2018-06-02T20:09:34.205Z,3.00
2018-06-02T20:12:02.842Z,2.83
2018-06-02T20:14:31.510Z,3.20
2018-06-02T20:17:00.187Z,3.23
2018-06-02T20:19:28.861Z,3.17
2018-06-02T20:21:57.550Z,3.23
2018-06-02T20:24:26.285Z,4.00
2018-06-02T20:26:54.991Z,3.33
2018-06-02T20:29:23.670Z,3.17
2018-06-02T20:31:52.373Z,3.93
2018-06-02T20:34:21.152Z,3.60
2018-06-02T20:36:49.837Z,3.35
2018-06-02T20:39:18.530Z,3.87
2018-06-02T20:41:47.206Z,3.50
2018-06-02T20:44:15.886Z,3.20
2018-06-02T20:46:44.562Z,3.73
2018-06-02T20:49:14.395Z,5.50
2018-06-02T20:51:43.033Z,6.30
2018-06-02T20:54:11.869Z,6.67
2018-06-02T20:56:40.544Z,7.33
2018-06-02T20:59:09.267Z,7.20
2018-06-02T21:01:37.901Z,6.10
2018-06-02T21:04:06.566Z,5.80
2018-06-02T21:06:35.230Z,10.23
2018-06-02T21:09:05.984Z,10.13
2018-06-02T21:11:34.658Z,7.90
2018-06-02T21:14:03.411Z,7.00
2018-06-02T21:16:32.133Z,5.12
2018-06-02T21:19:00.789Z,5.20
2018-06-02T21:21:29.490Z,5.23
2018-06-02T21:23:58.248Z,4.20
2018-06-02T21:26:27.651Z,4.53
2018-06-02T21:28:57.353Z,4.15
2018-06-02T21:31:26.023Z,4.27
2018-06-02T21:33:54.700Z,4.67
2018-06-02T21:36:23.430Z,3.20
2018-06-02T21:38:52.106Z,3.95
2018-06-02T21:41:20.783Z,3.60
2018-06-02T21:43:49.385Z,3.20
2018-06-02T21:46:18.137Z,4.30
2018-06-02T21:48:46.766Z,5.10
2018-06-02T21:51:15.543Z,4.87
2018-06-02T21:53:44.845Z,4.40
2018-06-02T21:56:14.460Z,4.37
2018-06-02T21:58:43.148Z,4.93
2018-06-02T22:01:11.929Z,5.57
2018-06-02T22:03:40.604Z,4.77
2018-06-02T22:06:09.330Z,4.77
2018-06-02T22:08:38.284Z,4.80
2018-06-02T22:11:06.986Z,5.20
2018-06-02T22:13:35.714Z,5.57
2018-06-02T22:16:04.486Z,5.37
2018-06-02T22:18:33.219Z,5.03
2018-06-02T22:21:01.918Z,4.50
2018-06-02T22:23:30.645Z,3.96
2018-06-02T22:25:59.348Z,4.30
2018-06-02T22:28:28.075Z,4.37
2018-06-02T22:30:56.976Z,4.55
2018-06-02T22:33:25.674Z,4.47
2018-06-02T22:35:54.437Z,4.87
2018-06-02T22:38:23.158Z,4.30
2018-06-02T22:40:51.912Z,4.60
2018-06-02T22:43:20.889Z,4.40
2018-06-02T22:45:49.613Z,4.73
2018-06-02T22:48:18.993Z,4.50
2018-06-02T22:50:47.793Z,3.90
2018-06-02T22:53:17.047Z,4.37
2018-06-02T22:55:45.850Z,4.60
2018-06-02T22:58:16.705Z,4.03
2018-06-02T23:00:45.541Z,4.30
2018-06-02T23:03:14.956Z,5.33
2018-06-02T23:05:44.207Z,5.37
2018-06-02T23:08:13.209Z,3.87
2018-06-02T23:10:43.527Z,4.63
2018-06-02T23:13:12.413Z,5.60
2018-06-02T23:15:46.465Z,6.17
2018-06-02T23:18:15.517Z,6.27
2018-06-02T23:20:44.897Z,5.35
2018-06-02T23:23:13.599Z,4.90
2018-06-02T23:25:42.773Z,5.37
2018-06-02T23:28:13.588Z,4.73
2018-06-02T23:30:42.341Z,5.77
2018-06-02T23:33:11.053Z,5.93
2018-06-02T23:35:39.883Z,5.63
2018-06-02T23:38:09.037Z,6.23
2018-06-02T23:40:37.725Z,5.37
2018-06-02T23:43:06.555Z,6.23
2018-06-02T23:45:35.192Z,7.30
2018-06-02T23:48:03.947Z,5.35
2018-06-02T23:50:32.946Z,6.03
2018-06-02T23:53:03.777Z,6.58
2018-06-02T23:55:32.527Z,5.83
2018-06-02T23:58:01.254Z,5.90
